Time;durP1;ratioP1;P1;durP2;ratioP2;P2;SDS_P1;SDS_P2;PMS_P1;PMS_P2;Temp;Humidity;BMP_temperature;BMP_pressure;BME280_temperature;BME280_humidity;BME280_pressure;Samples;Min_cycle;Max_cycle;Signal;HPM_P1;HPM_P2
2024/03/04 00:01:34;;;;;;;8.15;5.20;;;;;;;8.79;100.00;100021.25;4874875;29;20848;-67
2024/03/04 00:04:04;;;;;;;5.68;4.68;;;;;;;8.75;100.00;100030.81;4876760;29;20256;-67
2024/03/04 00:06:33;;;;;;;11.18;5.35;;;;;;;8.80;100.00;100028.31;4877062;29;20207;-65
2024/03/04 00:09:04;;;;;;;9.23;6.63;;;;;;;8.85;100.00;100025.81;4874814;29;20706;-66
2024/03/04 00:11:33;;;;;;;9.57;6.03;;;;;;;8.89;100.00;100031.59;4876245;29;20364;-67
2024/03/04 00:14:03;;;;;;;8.90;6.50;;;;;;;8.87;100.00;100026.41;4878714;29;20246;-67
2024/03/04 00:16:31;;;;;;;12.60;6.07;;;;;;;8.79;100.00;100029.34;4875988;29;20206;-66
2024/03/04 00:19:01;;;;;;;8.70;6.15;;;;;;;9.01;100.00;100027.19;4876852;29;20222;-66
2024/03/04 00:21:31;;;;;;;9.48;5.32;;;;;;;8.96;100.00;100032.41;4875401;29;20557;-65
2024/03/04 00:24:00;;;;;;;7.90;7.00;;;;;;;8.92;100.00;100026.59;4876559;29;20733;-67
2024/03/04 00:26:29;;;;;;;8.82;5.57;;;;;;;8.82;100.00;100026.22;4878071;29;20467;-65
2024/03/04 00:28:58;;;;;;;10.27;5.90;;;;;;;8.70;100.00;100030.63;4876950;29;20263;-66
2024/03/04 00:31:27;;;;;;;12.75;5.55;;;;;;;8.64;100.00;100026.91;4871908;29;20203;-66
2024/03/04 00:33:56;;;;;;;9.02;6.03;;;;;;;8.57;100.00;100030.63;4874214;29;20207;-67
2024/03/04 00:36:26;;;;;;;11.65;7.55;;;;;;;8.55;100.00;100036.25;4874514;29;20203;-68
2024/03/04 00:38:57;;;;;;;10.40;6.32;;;;;;;8.55;100.00;100035.41;4868736;29;20250;-66
2024/03/04 00:41:26;;;;;;;8.05;6.47;;;;;;;8.53;100.00;100026.69;4875615;29;20255;-65
2024/03/04 00:43:55;;;;;;;10.45;6.10;;;;;;;8.43;100.00;100029.00;4881739;29;20199;-66
2024/03/04 00:46:24;;;;;;;7.15;5.20;;;;;;;8.42;100.00;100025.50;4875419;29;20198;-67
2024/03/04 00:48:53;;;;;;;10.90;7.93;;;;;;;8.39;100.00;100033.16;4878619;29;20226;-66
2024/03/04 00:51:22;;;;;;;9.75;6.03;;;;;;;8.40;100.00;100032.13;4881333;29;20552;-67
2024/03/04 00:53:51;;;;;;;13.10;6.57;;;;;;;8.29;100.00;100037.09;4875235;29;20195;-66
2024/03/04 00:56:21;;;;;;;8.25;4.10;;;;;;;8.22;100.00;100036.25;4878405;29;20263;-68
2024/03/04 00:58:50;;;;;;;9.98;5.60;;;;;;;8.25;100.00;100046.59;4876610;29;20286;-66
2024/03/04 01:01:19;;;;;;;8.43;6.57;;;;;;;8.16;100.00;100037.06;4882217;29;20202;-65
2024/03/04 01:03:48;;;;;;;16.00;7.10;;;;;;;8.07;100.00;100043.72;4871318;29;20215;-67
2024/03/04 01:06:17;;;;;;;9.93;7.15;;;;;;;8.07;100.00;100046.41;4882955;29;20206;-67
2024/03/04 01:08:46;;;;;;;6.25;5.40;;;;;;;8.01;100.00;100039.13;4873613;29;20740;-66
2024/03/04 01:11:15;;;;;;;8.40;6.10;;;;;;;8.02;100.00;100040.81;4882389;29;20203;-67
2024/03/04 01:13:45;;;;;;;11.38;6.13;;;;;;;8.00;100.00;100040.16;4869476;29;20214;-68
2024/03/04 01:16:15;;;;;;;11.05;6.05;;;;;;;8.06;100.00;100047.44;4877430;29;20201;-67
2024/03/04 01:18:45;;;;;;;10.80;5.30;;;;;;;8.15;100.00;100045.34;4870262;29;20222;-67
2024/03/04 01:21:15;;;;;;;10.02;8.00;;;;;;;8.15;100.00;100050.75;4874791;29;20666;-67
2024/03/04 01:23:45;;;;;;;10.68;6.78;;;;;;;8.12;100.00;100051.16;4877579;29;20201;-67
2024/03/04 01:26:14;;;;;;;9.20;5.63;;;;;;;8.02;100.00;100048.88;4877727;29;20209;-67
2024/03/04 01:28:47;;;;;;;11.15;6.50;;;;;;;7.96;100.00;100046.19;4876414;29;20574;-66
2024/03/04 01:31:18;;;;;;;8.82;6.47;;;;;;;7.97;100.00;100047.84;4874692;29;20709;-68
2024/03/04 01:33:47;;;;;;;7.28;6.18;;;;;;;7.97;100.00;100048.66;4880318;29;20678;-67
2024/03/04 01:36:17;;;;;;;15.60;8.82;;;;;;;7.97;100.00;100064.84;4872512;29;20206;-67
2024/03/04 01:38:47;;;;;;;14.25;7.45;;;;;;;7.97;100.00;100055.91;4872203;29;20225;-64
2024/03/04 01:41:15;;;;;;;8.60;6.85;;;;;;;7.87;100.00;100053.63;4876566;29;20202;-66
2024/03/04 01:43:46;;;;;;;9.60;6.03;;;;;;;7.85;100.00;100055.69;4875038;29;20219;-65
2024/03/04 01:46:14;;;;;;;8.40;7.20;;;;;;;7.94;100.00;100054.44;4872990;29;20630;-67
2024/03/04 01:48:44;;;;;;;11.50;7.57;;;;;;;7.92;100.00;100051.16;4879934;29;20219;-68
2024/03/04 01:51:16;;;;;;;10.20;6.22;;;;;;;7.88;100.00;100057.97;4875394;29;20221;-67
2024/03/04 01:53:45;;;;;;;11.07;8.93;;;;;;;7.98;100.00;100054.88;4879014;29;20191;-68
2024/03/04 01:56:14;;;;;;;9.82;6.35;;;;;;;7.99;100.00;100054.66;4876906;29;20199;-68
2024/03/04 01:58:48;;;;;;;11.02;7.32;;;;;;;7.95;100.00;100060.66;4876364;29;20275;-67
2024/03/04 02:01:18;;;;;;;10.85;8.60;;;;;;;7.97;100.00;100054.06;4876238;29;20559;-67
2024/03/04 02:03:49;;;;;;;13.23;9.82;;;;;;;7.99;100.00;100062.75;4877920;29;20285;-66
2024/03/04 02:06:21;;;;;;;16.75;10.13;;;;;;;8.02;100.00;100067.75;4878010;29;20194;-68
2024/03/04 02:08:50;;;;;;;26.27;7.88;;;;;;;7.98;100.00;100069.19;4871960;29;20233;-66
2024/03/04 02:11:20;;;;;;;6.80;6.10;;;;;;;8.03;100.00;100058.63;4873849;29;20206;-65
2024/03/04 02:13:52;;;;;;;13.00;6.95;;;;;;;8.02;100.00;100054.28;4879185;29;20738;-64
2024/03/04 02:16:21;;;;;;;17.23;8.60;;;;;;;7.98;100.00;100066.50;4879239;29;20289;-66
2024/03/04 02:18:50;;;;;;;26.83;7.40;;;;;;;7.94;100.00;100072.50;4874637;29;20286;-66
2024/03/04 02:21:22;;;;;;;11.15;5.85;;;;;;;7.86;100.00;100063.56;4879361;29;20286;-66
2024/03/04 02:23:52;;;;;;;17.98;9.30;;;;;;;7.88;100.00;100062.53;4877574;29;20190;-67
2024/03/04 02:26:21;;;;;;;13.95;8.07;;;;;;;7.87;100.00;100069.78;4877060;29;20191;-67
2024/03/04 02:28:50;;;;;;;10.63;8.07;;;;;;;7.89;100.00;100078.47;4878931;29;20219;-66
2024/03/04 02:31:20;;;;;;;15.63;7.35;;;;;;;7.82;100.00;100072.25;4872206;29;20310;-67
2024/03/04 02:33:49;;;;;;;14.43;8.70;;;;;;;7.76;100.00;100073.06;4878923;29;20214;-67
2024/03/04 02:36:18;;;;;;;18.63;8.77;;;;;;;7.73;100.00;100084.25;4878750;29;20201;-67
2024/03/04 02:38:47;;;;;;;14.45;10.82;;;;;;;7.67;100.00;100090.44;4876914;29;20226;-67
2024/03/04 02:41:21;;;;;;;13.93;8.23;;;;;;;7.62;100.00;100088.38;4872827;29;20187;-67
2024/03/04 02:43:51;;;;;;;12.15;7.63;;;;;;;7.66;100.00;100088.78;4878897;29;20199;-64
2024/03/04 02:46:21;;;;;;;11.95;9.02;;;;;;;7.63;100.00;100094.59;4875886;29;20246;-66
2024/03/04 02:48:52;;;;;;;11.07;8.65;;;;;;;7.59;100.00;100096.03;4873229;29;20218;-67
2024/03/04 02:51:21;;;;;;;10.77;9.23;;;;;;;7.50;100.00;100099.94;4878593;29;20203;-66
2024/03/04 02:53:50;;;;;;;19.98;7.50;;;;;;;7.49;100.00;100103.66;4878773;29;20187;-66
2024/03/04 02:56:20;;;;;;;12.32;8.23;;;;;;;7.40;100.00;100103.00;4879063;29;20199;-66
2024/03/04 02:58:49;;;;;;;14.18;8.40;;;;;;;7.37;100.00;100104.22;4871315;29;20752;-65
2024/03/04 03:01:18;;;;;;;10.38;7.60;;;;;;;7.30;100.00;100114.13;4873979;29;20188;-66
2024/03/04 03:03:47;;;;;;;15.35;7.03;;;;;;;7.35;100.00;100113.53;4876559;29;20206;-65
2024/03/04 03:06:16;;;;;;;9.55;7.70;;;;;;;7.26;100.00;100115.53;4874832;29;20195;-67
2024/03/04 03:08:44;;;;;;;16.58;10.57;;;;;;;7.23;100.00;100115.94;4873279;29;20586;-67
2024/03/04 03:11:14;;;;;;;14.13;8.05;;;;;;;7.13;100.00;100120.88;4876396;29;20202;-67
2024/03/04 03:13:45;;;;;;;8.90;6.82;;;;;;;7.17;100.00;100122.13;4871814;29;20308;-66
2024/03/04 03:16:19;;;;;;;12.52;7.47;;;;;;;7.08;100.00;100115.25;4878664;29;20670;-66
2024/03/04 03:18:48;;;;;;;13.40;8.35;;;;;;;7.03;100.00;100119.56;4873173;29;20241;-67
2024/03/04 03:21:17;;;;;;;21.20;9.20;;;;;;;6.96;100.00;100125.75;4872057;29;20260;-67
2024/03/04 03:23:47;;;;;;;10.65;8.13;;;;;;;6.90;100.00;100114.94;4876205;29;20275;-68
2024/03/04 03:26:17;;;;;;;8.57;5.90;;;;;;;6.82;100.00;100120.47;4871909;29;20262;-67
2024/03/04 03:28:47;;;;;;;10.40;9.43;;;;;;;6.83;100.00;100130.19;4881150;29;20274;-68
2024/03/04 03:31:19;;;;;;;10.77;9.55;;;;;;;6.80;100.00;100136.81;4880571;29;20219;-70
2024/03/04 03:33:47;;;;;;;9.60;8.80;;;;;;;6.72;100.00;100139.66;4880926;29;20283;-68
2024/03/04 03:36:16;;;;;;;14.88;8.05;;;;;;;6.62;100.00;100128.41;4875854;29;20254;-68
2024/03/04 03:38:46;;;;;;;13.20;8.55;;;;;;;6.63;100.00;100140.00;4880399;29;20310;-67
2024/03/04 03:41:15;;;;;;;22.00;10.90;;;;;;;6.59;100.00;100142.22;4877774;29;20187;-67
2024/03/04 03:43:45;;;;;;;6.45;5.10;;;;;;;6.57;100.00;100138.91;4879267;29;20223;-68
2024/03/04 03:46:14;;;;;;;15.32;7.45;;;;;;;6.54;100.00;100145.47;4879606;29;20203;-65
2024/03/04 03:48:44;;;;;;;6.72;5.63;;;;;;;6.56;100.00;100139.94;4881076;29;20297;-68
2024/03/04 03:51:12;;;;;;;11.30;6.18;;;;;;;6.49;100.00;100134.47;4875115;29;20210;-68
2024/03/04 03:53:41;;;;;;;28.45;8.35;;;;;;;6.59;100.00;100144.06;4879690;29;20612;-68
2024/03/04 03:56:11;;;;;;;12.00;8.43;;;;;;;6.54;100.00;100141.97;4878436;29;20566;-67
2024/03/04 03:58:40;;;;;;;14.15;8.88;;;;;;;6.47;100.00;100146.47;4878201;29;20230;-67
2024/03/04 04:01:10;;;;;;;12.13;8.45;;;;;;;6.46;100.00;100155.53;4877886;29;20195;-67
2024/03/04 04:03:39;;;;;;;10.68;9.27;;;;;;;6.54;100.00;100150.84;4868324;29;20307;-66
2024/03/04 04:06:08;;;;;;;15.68;9.05;;;;;;;6.49;100.00;100155.16;4873249;29;20286;-67
2024/03/04 04:08:37;;;;;;;15.75;9.27;;;;;;;6.49;100.00;100155.16;4876490;29;20309;-66
2024/03/04 04:11:06;;;;;;;18.20;9.50;;;;;;;6.43;100.00;100162.16;4876199;29;20666;-67
2024/03/04 04:13:35;;;;;;;16.65;8.90;;;;;;;6.34;100.00;100159.78;4872105;29;20202;-66
2024/03/04 04:16:04;;;;;;;10.18;9.07;;;;;;;6.31;100.00;100163.69;4885741;29;20301;-67
2024/03/04 04:18:35;;;;;;;14.90;9.70;;;;;;;6.35;100.00;100164.94;4875010;29;20218;-67
2024/03/04 04:21:07;;;;;;;15.07;10.15;;;;;;;6.55;100.00;100168.66;4876237;29;20233;-67
2024/03/04 04:23:36;;;;;;;13.48;9.75;;;;;;;6.53;100.00;100169.88;4876080;29;20191;-66
2024/03/04 04:26:05;;;;;;;11.18;7.70;;;;;;;6.60;100.00;100173.44;4878926;29;20210;-68
2024/03/04 04:28:34;;;;;;;15.65;9.27;;;;;;;6.58;100.00;100174.69;4881780;29;20641;-67
2024/03/04 04:31:03;;;;;;;16.38;12.23;;;;;;;6.57;100.00;100175.69;4874832;29;20278;-68
2024/03/04 04:33:34;;;;;;;14.48;8.85;;;;;;;6.61;100.00;100182.34;4880875;29;20221;-67
2024/03/04 04:36:03;;;;;;;22.45;11.10;;;;;;;6.59;100.00;100181.69;4881018;29;20190;-67
2024/03/04 04:38:32;;;;;;;14.63;8.15;;;;;;;6.67;100.00;100179.72;4879582;29;20298;-67
2024/03/04 04:41:00;;;;;;;13.93;8.00;;;;;;;6.70;100.00;100182.03;4880776;29;20206;-66
2024/03/04 04:43:31;;;;;;;24.88;12.75;;;;;;;6.76;100.00;100172.34;4880921;29;20745;-65
2024/03/04 04:46:00;;;;;;;14.70;12.27;;;;;;;6.72;100.00;100184.53;4880575;29;20559;-67
2024/03/04 04:48:29;;;;;;;11.85;7.82;;;;;;;6.74;100.00;100191.34;4876287;29;20270;-67
2024/03/04 04:50:59;;;;;;;13.00;10.70;;;;;;;6.63;100.00;100183.00;4880512;29;20187;-67
2024/03/04 04:53:27;;;;;;;12.27;10.40;;;;;;;6.59;100.00;100193.28;4875025;29;20214;-67
2024/03/04 04:55:56;;;;;;;10.68;8.05;;;;;;;6.60;100.00;100189.59;4882549;29;20198;-66
2024/03/04 04:58:25;;;;;;;11.63;8.15;;;;;;;6.51;100.00;100191.56;4884068;29;20228;-68
2024/03/04 05:00:56;;;;;;;10.38;9.02;;;;;;;6.54;100.00;100196.56;4876391;29;20203;-68
2024/03/04 05:03:25;;;;;;;18.23;8.70;;;;;;;6.52;100.00;100193.25;4871515;29;20659;-67
2024/03/04 05:06:16;;;;;;;17.10;9.63;;;;;;;6.49;100.00;100203.53;4880699;29;20561;-68
2024/03/04 05:08:45;;;;;;;15.43;10.88;;;;;;;6.46;100.00;100199.38;4872763;29;20230;-67
2024/03/04 05:11:14;;;;;;;18.88;11.57;;;;;;;6.45;100.00;100203.09;4876317;29;20211;-68
2024/03/04 05:13:43;;;;;;;17.38;9.98;;;;;;;6.40;100.00;100194.78;4880179;29;20187;-66
2024/03/04 05:16:12;;;;;;;19.65;10.50;;;;;;;6.35;100.00;100194.50;4877176;29;20210;-66
2024/03/04 05:18:41;;;;;;;15.65;8.02;;;;;;;6.33;100.00;100193.06;4879054;29;20241;-67
2024/03/04 05:21:10;;;;;;;16.80;11.80;;;;;;;6.41;100.00;100196.44;4873926;29;20622;-67
2024/03/04 05:23:40;;;;;;;12.60;7.82;;;;;;;6.34;100.00;100200.91;4880291;29;20194;-68
2024/03/04 05:26:09;;;;;;;11.60;8.95;;;;;;;6.31;100.00;100195.09;4872842;29;20206;-67
2024/03/04 05:28:38;;;;;;;16.58;10.57;;;;;;;6.33;100.00;100199.25;4875995;29;20259;-66
2024/03/04 05:31:07;;;;;;;11.20;7.57;;;;;;;6.27;100.00;100204.56;4879321;29;20198;-66
2024/03/04 05:33:37;;;;;;;16.83;9.70;;;;;;;6.23;100.00;100206.81;4880279;29;20619;-68
2024/03/04 05:36:08;;;;;;;23.63;10.73;;;;;;;6.28;100.00;100207.06;4880840;29;20547;-68
2024/03/04 05:38:38;;;;;;;15.77;9.77;;;;;;;6.25;100.00;100207.44;4880595;29;20219;-66
2024/03/04 05:41:07;;;;;;;29.75;12.27;;;;;;;6.21;100.00;100214.22;4872994;29;20195;-67
2024/03/04 05:43:36;;;;;;;12.75;8.38;;;;;;;6.28;100.00;100216.97;4872361;29;20567;-68
2024/03/04 05:46:05;;;;;;;16.45;9.93;;;;;;;6.23;100.00;100217.56;4876769;29;20213;-67
2024/03/04 05:48:33;;;;;;;14.93;8.75;;;;;;;6.23;100.00;100219.41;4880166;29;20225;-68
2024/03/04 05:51:03;;;;;;;12.18;10.48;;;;;;;6.18;100.00;100221.81;4880103;29;20198;-66
2024/03/04 05:53:32;;;;;;;19.08;12.02;;;;;;;6.14;100.00;100223.22;4876059;29;20254;-67
2024/03/04 05:56:05;;;;;;;14.48;8.23;;;;;;;6.14;100.00;100226.75;4879169;29;20199;-67
2024/03/04 05:58:35;;;;;;;16.45;10.82;;;;;;;6.10;100.00;100230.81;4876192;29;20223;-68
2024/03/04 06:01:04;;;;;;;15.73;12.20;;;;;;;6.17;100.00;100231.75;4880426;29;20250;-68
2024/03/04 06:03:33;;;;;;;18.67;13.05;;;;;;;6.11;100.00;100232.50;4873938;29;20249;-67
2024/03/04 06:06:02;;;;;;;19.00;14.32;;;;;;;6.04;100.00;100236.97;4879340;29;20634;-64
2024/03/04 06:08:32;;;;;;;19.13;10.60;;;;;;;6.07;100.00;100228.53;4875388;29;20535;-66
2024/03/04 06:11:03;;;;;;;19.83;10.27;;;;;;;6.05;100.00;100233.25;4881737;29;20213;-68
2024/03/04 06:13:32;;;;;;;19.17;10.88;;;;;;;6.08;100.00;100231.03;4880327;29;20581;-67
2024/03/04 06:16:01;;;;;;;20.17;11.98;;;;;;;6.13;100.00;100243.88;4877857;29;20435;-66
2024/03/04 06:18:30;;;;;;;20.83;11.40;;;;;;;6.15;100.00;100239.13;4875333;29;20226;-68
2024/03/04 06:21:00;;;;;;;14.48;12.00;;;;;;;6.18;100.00;100246.00;4877606;29;20198;-67
2024/03/04 06:23:28;;;;;;;18.52;10.75;;;;;;;6.18;100.00;100246.84;4881218;29;20194;-68
2024/03/04 06:25:57;;;;;;;15.35;10.27;;;;;;;6.21;100.00;100251.00;4876410;29;20285;-67
2024/03/04 06:28:27;;;;;;;11.07;9.55;;;;;;;6.24;100.00;100238.03;4879651;29;20187;-66
2024/03/04 06:30:56;;;;;;;16.40;10.82;;;;;;;6.22;100.00;100240.06;4875769;29;20206;-66
2024/03/04 06:33:25;;;;;;;16.95;12.10;;;;;;;6.28;100.00;100250.06;4879547;29;20293;-67
2024/03/04 06:36:12;;;;;;;9.45;8.43;;;;;;;6.35;100.00;100250.94;4878399;29;20206;-69
2024/03/04 06:38:41;;;;;;;11.02;7.35;;;;;;;6.38;100.00;100255.13;4878059;29;20291;-66
2024/03/04 06:41:10;;;;;;;22.30;11.40;;;;;;;6.35;100.00;100256.31;4878417;29;20198;-67
2024/03/04 06:43:40;;;;;;;19.67;12.32;;;;;;;6.48;100.00;100261.03;4879161;29;20187;-67
2024/03/04 06:46:10;;;;;;;14.02;10.50;;;;;;;6.50;100.00;100265.16;4878942;29;20682;-66
2024/03/04 06:48:39;;;;;;;14.82;8.13;;;;;;;6.51;100.00;100272.22;4879045;29;20219;-67
2024/03/04 06:51:08;;;;;;;27.92;14.75;;;;;;;6.64;100.00;100273.34;4878771;29;20206;-68
2024/03/04 06:53:38;;;;;;;18.42;10.13;;;;;;;6.72;100.00;100268.72;4879048;29;20231;-66
2024/03/04 06:56:09;;;;;;;17.48;11.05;;;;;;;6.73;100.00;100277.63;4879100;29;20194;-67
2024/03/04 06:58:39;;;;;;;16.20;9.13;;;;;;;6.82;100.00;100273.75;4877566;29;20313;-67
2024/03/04 07:01:08;;;;;;;12.18;11.05;;;;;;;6.83;100.00;100276.25;4878995;29;20306;-66
2024/03/04 07:03:38;;;;;;;16.63;11.27;;;;;;;6.97;100.00;100277.22;4876365;29;20233;-68
2024/03/04 07:06:09;;;;;;;15.35;12.13;;;;;;;6.91;100.00;100277.97;4878804;29;20194;-67
2024/03/04 07:08:37;;;;;;;11.55;7.72;;;;;;;7.02;100.00;100280.13;4874910;29;20234;-65
2024/03/04 07:11:06;;;;;;;17.98;12.98;;;;;;;7.01;100.00;100278.50;4871993;29;20662;-66
2024/03/04 07:13:35;;;;;;;18.08;12.20;;;;;;;7.13;100.00;100286.84;4879425;29;20262;-67
2024/03/04 07:16:07;;;;;;;20.67;10.88;;;;;;;7.12;100.00;100291.38;4878703;29;20217;-67
2024/03/04 07:18:36;;;;;;;18.17;12.13;;;;;;;7.06;100.00;100300.25;4873624;29;20664;-65
2024/03/04 07:21:05;;;;;;;21.00;10.38;;;;;;;7.13;100.00;100295.75;4879412;29;20680;-67
2024/03/04 07:23:34;;;;;;;14.73;12.00;;;;;;;7.25;100.00;100296.06;4877798;29;20203;-66
2024/03/04 07:26:06;;;;;;;19.25;9.15;;;;;;;7.32;100.00;100300.47;4878225;29;20203;-64
2024/03/04 07:28:36;;;;;;;11.25;9.80;;;;;;;7.26;100.00;100298.53;4877793;29;20229;-64
2024/03/04 07:31:07;;;;;;;18.17;13.70;;;;;;;7.29;100.00;100292.78;4871216;29;20584;-68
2024/03/04 07:33:36;;;;;;;8.60;7.85;;;;;;;7.33;100.00;100299.44;4874930;29;20290;-66
2024/03/04 07:36:05;;;;;;;23.00;12.65;;;;;;;7.48;100.00;100304.72;4872394;29;20199;-66
2024/03/04 07:38:34;;;;;;;14.27;8.98;;;;;;;7.55;100.00;100302.09;4874868;29;20298;-67
2024/03/04 07:41:03;;;;;;;10.98;8.80;;;;;;;7.61;100.00;100307.50;4877389;29;20203;-68
2024/03/04 07:43:32;;;;;;;39.42;12.00;;;;;;;7.72;100.00;100309.66;4874050;29;20209;-67
2024/03/04 07:46:01;;;;;;;20.13;10.43;;;;;;;7.79;100.00;100309.72;4872568;29;20287;-68
2024/03/04 07:48:31;;;;;;;16.20;10.07;;;;;;;7.87;100.00;100312.22;4878149;29;20305;-67
2024/03/04 07:51:00;;;;;;;15.73;12.95;;;;;;;7.97;100.00;100309.16;4878059;29;20209;-68
2024/03/04 07:53:28;;;;;;;29.58;11.63;;;;;;;8.07;100.00;100318.56;4878534;29;20210;-68
2024/03/04 07:56:03;;;;;;;21.88;11.55;;;;;;;8.00;100.00;100317.69;4877678;29;20221;-65
2024/03/04 07:58:35;;;;;;;16.48;10.02;;;;;;;8.06;100.00;100314.19;4876986;29;20716;-67
2024/03/04 08:01:03;;;;;;;17.05;11.48;;;;;;;8.21;100.00;100320.28;4880987;29;20286;-69
2024/03/04 08:03:33;;;;;;;16.50;8.57;;;;;;;8.21;100.00;100324.84;4880450;29;20222;-68
2024/03/04 08:06:05;;;;;;;13.23;11.35;;;;;;;8.16;100.00;100320.06;4879195;29;20632;-66
2024/03/04 08:08:34;;;;;;;13.95;10.32;;;;;;;8.27;100.00;100318.66;4878258;29;20214;-67
2024/03/04 08:11:04;;;;;;;13.15;10.18;;;;;;;8.49;100.00;100327.47;4877093;29;20213;-67
2024/03/04 08:13:33;;;;;;;13.02;10.55;;;;;;;8.57;100.00;100329.97;4880059;29;20218;-67
2024/03/04 08:16:02;;;;;;;22.67;11.23;;;;;;;8.69;100.00;100333.75;4882004;29;20614;-67
2024/03/04 08:18:32;;;;;;;15.85;9.40;;;;;;;8.69;100.00;100334.59;4880761;29;20825;-66
2024/03/04 08:21:01;;;;;;;16.13;9.77;;;;;;;8.91;100.00;100343.34;4874840;29;20263;-68
2024/03/04 08:23:45;;;;;;;15.70;10.20;;;;;;;9.11;100.00;100344.22;4879939;29;20219;-67
2024/03/04 08:26:14;;;;;;;16.00;10.52;;;;;;;9.28;100.00;100351.91;4880284;29;20316;-67
2024/03/04 08:28:44;;;;;;;14.30;10.77;;;;;;;9.42;100.00;100351.72;4874657;29;20769;-67
2024/03/04 08:31:17;;;;;;;15.40;8.95;;;;;;;9.46;100.00;100357.53;4880316;29;20213;-67
2024/03/04 08:33:47;;;;;;;17.47;11.10;;;;;;;9.29;100.00;100361.69;4881714;29;20287;-67
2024/03/04 08:36:16;;;;;;;14.13;10.52;;;;;;;9.33;100.00;100360.22;4875959;29;20441;-67
2024/03/04 08:38:47;;;;;;;17.83;9.20;;;;;;;9.52;100.00;100367.50;4880331;29;20697;-68
2024/03/04 08:41:17;;;;;;;14.05;9.30;;;;;;;9.62;100.00;100378.72;4877416;29;20477;-68
2024/03/04 08:43:47;;;;;;;13.77;10.23;;;;;;;9.84;100.00;100374.75;4878595;29;20199;-67
2024/03/04 08:46:16;;;;;;;13.33;10.10;;;;;;;10.09;100.00;100376.78;4877987;29;20455;-67
2024/03/04 08:48:46;;;;;;;11.30;8.02;;;;;;;9.85;100.00;100379.13;4875017;29;20978;-66
2024/03/04 08:51:17;;;;;;;17.23;11.20;;;;;;;9.95;100.00;100387.63;4881219;29;20206;-67
2024/03/04 08:53:46;;;;;;;14.50;9.97;;;;;;;9.99;100.00;100391.56;4879632;29;20483;-68
2024/03/04 08:56:15;;;;;;;15.88;11.50;;;;;;;9.95;100.00;100394.91;4877240;29;20927;-69
2024/03/04 08:58:44;;;;;;;16.07;10.70;;;;;;;10.19;100.00;100396.13;4879223;29;20791;-68
2024/03/04 09:01:13;;;;;;;20.87;11.70;;;;;;;10.48;100.00;100394.78;4873589;29;20470;-67
2024/03/04 09:03:43;;;;;;;12.83;9.13;;;;;;;10.22;100.00;100398.41;4880961;29;20938;-67
2024/03/04 09:06:17;;;;;;;20.37;11.10;;;;;;;10.37;100.00;100396.28;4878346;29;20451;-68
2024/03/04 09:08:47;;;;;;;14.57;10.23;;;;;;;10.70;100.00;100391.56;4881103;29;20458;-67
2024/03/04 09:11:15;;;;;;;20.07;13.50;;;;;;;10.77;100.00;100394.25;4876450;29;21128;-67
2024/03/04 09:13:45;;;;;;;19.60;10.87;;;;;;;10.83;99.81;100399.66;4881153;29;20502;-67
2024/03/04 09:16:14;;;;;;;15.90;11.63;;;;;;;11.10;98.56;100399.50;4879493;29;20427;-69
2024/03/04 09:18:43;;;;;;;19.03;9.93;;;;;;;11.56;95.79;100400.03;4879181;29;20501;-66
2024/03/04 09:21:12;;;;;;;12.90;10.67;;;;;;;11.64;94.04;100398.91;4880219;29;20435;-67
2024/03/04 09:23:43;;;;;;;16.40;8.93;;;;;;;11.48;94.12;100404.84;4877413;29;20510;-66
2024/03/04 09:26:12;;;;;;;22.57;12.50;;;;;;;11.22;95.72;100393.19;4881530;29;20439;-67
2024/03/04 09:28:50;;;;;;;20.93;13.50;;;;;;;11.14;96.91;100398.00;4887477;29;20437;-67
2024/03/04 09:31:20;;;;;;;14.00;10.70;;;;;;;11.17;96.79;100400.28;4881495;29;21005;-67
2024/03/04 09:33:49;;;;;;;16.37;11.00;;;;;;;11.01;97.96;100406.22;4876772;29;20547;-67
2024/03/04 09:36:18;;;;;;;18.53;10.00;;;;;;;10.90;98.30;100400.44;4880444;29;20447;-67
2024/03/04 09:38:48;;;;;;;16.23;10.40;;;;;;;10.80;99.27;100405.47;4873942;29;20514;-68
2024/03/04 09:41:18;;;;;;;15.27;10.50;;;;;;;10.63;100.00;100407.03;4866652;29;20451;-67
2024/03/04 09:43:47;;;;;;;22.87;16.03;;;;;;;10.58;100.00;100403.28;4879966;29;20431;-68
2024/03/04 09:46:19;;;;;;;13.60;10.93;;;;;;;10.68;100.00;100414.50;4880679;29;20435;-67
2024/03/04 09:48:51;;;;;;;19.60;12.40;;;;;;;10.80;100.00;100415.47;4878362;29;20499;-71
2024/03/04 09:51:24;;;;;;;21.00;13.10;;;;;;;10.88;99.82;100418.78;4879409;29;20779;-66
2024/03/04 09:53:56;;;;;;;19.27;13.50;;;;;;;11.01;99.53;100417.88;4878668;29;20466;-66
2024/03/04 09:56:26;;;;;;;15.47;11.83;;;;;;;10.99;98.34;100430.00;4879674;29;20435;-67
2024/03/04 09:58:56;;;;;;;14.00;11.30;;;;;;;10.94;98.27;100427.91;4870429;29;20476;-67
2024/03/04 10:01:25;;;;;;;18.73;12.90;;;;;;;10.90;98.63;100429.38;4878073;29;20421;-67
2024/03/04 10:03:55;;;;;;;11.70;8.97;;;;;;;10.97;98.15;100432.06;4878393;29;20439;-68
2024/03/04 10:06:24;;;;;;;18.77;10.77;;;;;;;10.90;98.34;100432.91;4875643;29;20439;-67
2024/03/04 10:08:54;;;;;;;21.67;11.40;;;;;;;10.85;99.06;100442.72;4876475;29;20485;-68
2024/03/04 10:11:23;;;;;;;18.77;11.17;;;;;;;11.02;98.47;100434.97;4876346;29;20432;-68
2024/03/04 10:13:53;;;;;;;19.27;11.97;;;;;;;11.01;97.78;100438.69;4876221;29;20491;-67
2024/03/04 10:16:22;;;;;;;13.00;11.10;;;;;;;10.99;97.82;100436.19;4879966;29;20782;-68
2024/03/04 10:19:00;;;;;;;13.47;9.70;;;;;;;11.14;97.29;100439.47;4875701;29;20437;-65
2024/03/04 10:21:31;;;;;;;22.53;13.70;;;;;;;11.36;96.94;100437.25;4875205;29;20409;-67
2024/03/04 10:24:08;;;;;;;16.10;13.30;;;;;;;11.19;96.71;100436.94;4878953;29;20418;-67
2024/03/04 10:26:44;;;;;;;11.70;9.50;;;;;;;11.39;95.70;100434.09;4876035;29;20435;-69
2024/03/04 10:29:15;;;;;;;15.27;10.70;;;;;;;11.39;95.50;100441.41;4876599;29;20561;-66
2024/03/04 10:31:51;;;;;;;20.90;13.20;;;;;;;11.46;95.08;100436.78;4879023;29;20831;-67
2024/03/04 10:34:21;;;;;;;14.80;11.60;;;;;;;11.50;95.09;100438.84;4873188;29;20474;-67
2024/03/04 10:36:56;;;;;;;13.40;9.97;;;;;;;11.26;96.01;100439.63;4879069;29;20402;-68
2024/03/04 10:39:29;;;;;;;22.10;14.80;;;;;;;11.39;96.28;100441.41;4885546;29;20421;-67
2024/03/04 10:41:58;;;;;;;13.20;9.70;;;;;;;11.64;94.85;100439.56;4886241;29;20510;-67
2024/03/04 10:44:28;;;;;;;18.50;12.77;;;;;;;11.64;94.59;100434.97;4882719;29;20811;-67
2024/03/04 10:46:58;;;;;;;15.97;11.23;;;;;;;11.28;95.89;100440.22;4879470;29;20439;-68
2024/03/04 10:49:32;;;;;;;21.40;14.17;;;;;;;11.55;95.47;100440.88;4876955;29;20526;-67
2024/03/04 10:52:01;;;;;;;16.83;13.10;;;;;;;11.72;93.72;100445.56;4878099;29;20848;-68
2024/03/04 10:54:43;;;;;;;20.90;10.87;;;;;;;11.42;94.46;100455.38;4870329;29;20475;-67
2024/03/04 10:57:26;;;;;;;18.17;10.70;;;;;;;11.54;94.33;100459.00;4880266;29;20939;-68
2024/03/04 10:59:57;;;;;;;16.70;11.50;;;;;;;11.49;94.28;100458.00;4883196;29;20461;-68
2024/03/04 11:02:38;;;;;;;26.97;14.93;;;;;;;11.47;94.69;100465.53;4884036;29;20479;-66
2024/03/04 11:05:09;;;;;;;15.70;11.87;;;;;;;11.38;94.75;100459.53;4876442;29;20427;-67
2024/03/04 11:07:43;;;;;;;16.60;11.60;;;;;;;11.38;94.55;100461.41;4880708;29;20453;-68
2024/03/04 11:10:25;;;;;;;20.77;13.90;;;;;;;11.48;94.59;100461.75;4882292;29;20469;-68
2024/03/04 11:13:05;;;;;;;24.20;15.00;;;;;;;11.72;93.01;100463.69;4882310;29;20447;-67
2024/03/04 11:15:43;;;;;;;20.80;14.47;;;;;;;11.83;91.94;100464.88;4883698;29;20462;-68
2024/03/04 11:18:25;;;;;;;19.87;10.23;;;;;;;11.66;92.25;100470.81;4880116;29;20430;-68
2024/03/04 11:20:54;;;;;;;28.00;12.83;;;;;;;11.69;92.00;100461.41;4873431;29;20452;-67
2024/03/04 11:23:23;;;;;;;24.20;13.33;;;;;;;11.37;92.85;100463.31;4879079;29;20414;-66
2024/03/04 11:25:55;;;;;;;22.20;11.00;;;;;;;11.50;93.65;100465.94;4880494;29;20469;-67
2024/03/04 11:28:24;;;;;;;19.93;13.80;;;;;;;11.98;91.64;100458.09;4882960;29;20410;-68